createdAt,value
2019-04-21T00:00:32.076Z,14.02
2019-04-21T00:03:09.946Z,14.01
2019-04-21T00:05:58.939Z,14.01
2019-04-21T00:08:30.759Z,13.96
2019-04-21T00:11:02.760Z,13.90
2019-04-21T00:13:25.326Z,13.86
2019-04-21T00:15:48.847Z,13.88
2019-04-21T00:18:40.657Z,13.88
2019-04-21T00:21:11.060Z,13.79
2019-04-21T00:23:55.249Z,13.76
2019-04-21T00:26:24.067Z,13.71
2019-04-21T00:29:08.030Z,13.72
2019-04-21T00:31:28.313Z,13.68
2019-04-21T00:33:45.986Z,13.68
2019-04-21T00:36:20.847Z,13.71
2019-04-21T00:39:18.573Z,13.66
2019-04-21T00:41:41.844Z,13.67
2019-04-21T00:44:00.784Z,13.66
2019-04-21T00:46:34.818Z,13.62
2019-04-21T00:49:08.538Z,13.62
2019-04-21T00:52:05.270Z,13.62
2019-04-21T00:54:34.703Z,13.58
2019-04-21T00:57:05.589Z,13.58
2019-04-21T00:59:28.219Z,13.62
2019-04-21T01:01:53.872Z,13.63
2019-04-21T01:04:33.271Z,13.65
2019-04-21T01:07:01.624Z,13.65
2019-04-21T01:09:29.117Z,13.69
2019-04-21T01:12:03.708Z,13.69
2019-04-21T01:14:46.429Z,13.70
2019-04-21T01:17:13.030Z,13.66
2019-04-21T01:19:37.062Z,13.68
2019-04-21T01:21:50.634Z,13.68
2019-04-21T01:24:28.869Z,13.63
2019-04-21T01:27:01.006Z,13.67
2019-04-21T01:29:45.932Z,13.67
2019-04-21T01:32:18.710Z,13.71
2019-04-21T01:34:45.579Z,13.71
2019-04-21T01:37:14.161Z,13.63
2019-04-21T01:39:53.567Z,13.63
2019-04-21T01:42:22.649Z,13.74
2019-04-21T01:44:52.319Z,13.72
2019-04-21T01:47:21.634Z,13.63
2019-04-21T01:49:49.142Z,13.63
2019-04-21T01:52:38.301Z,13.68
2019-04-21T01:55:29.198Z,13.68
2019-04-21T01:58:11.353Z,13.65
2019-04-21T02:00:57.187Z,13.61
2019-04-21T02:06:12.529Z,13.63
2019-04-21T02:08:36.153Z,13.56
2019-04-21T02:11:13.385Z,13.56
2019-04-21T02:13:48.866Z,13.56
2019-04-21T02:16:31.327Z,13.55
2019-04-21T02:18:46.479Z,13.58
2019-04-21T02:21:04.413Z,13.58
2019-04-21T02:23:54.554Z,13.54
2019-04-21T02:26:22.640Z,13.52
2019-04-21T02:28:56.560Z,13.52
2019-04-21T02:31:41.834Z,13.51
2019-04-21T02:34:17.298Z,13.48
2019-04-21T02:41:57.834Z,13.46
2019-04-21T02:44:30.117Z,13.46
2019-04-21T02:46:42.026Z,13.46
2019-04-21T02:49:25.650Z,13.44
2019-04-21T02:54:42.050Z,13.43
2019-04-21T02:56:53.371Z,13.37
2019-04-21T02:59:33.972Z,13.38
2019-04-21T03:02:36.665Z,13.38
2019-04-21T03:05:18.219Z,13.31
2019-04-21T03:07:44.209Z,13.31
2019-04-21T03:10:20.698Z,13.20
2019-04-21T03:17:51.375Z,13.23
2019-04-21T03:22:57.858Z,13.23
2019-04-21T03:30:42.738Z,13.10
2019-04-21T03:36:07.219Z,13.09
2019-04-21T03:38:03.883Z,13.03
2019-04-21T03:40:32.946Z,13.06
2019-04-21T03:43:04.474Z,13.00
2019-04-21T03:45:39.208Z,12.96
2019-04-21T03:48:09.703Z,12.83
2019-04-21T03:53:16.753Z,12.83
2019-04-21T03:58:24.477Z,12.71
2019-04-21T04:01:16.547Z,12.71
2019-04-21T04:04:22.656Z,12.58
2019-04-21T04:06:43.454Z,12.59
2019-04-21T04:09:44.681Z,12.59
2019-04-21T04:12:26.277Z,12.56
2019-04-21T04:14:44.114Z,12.56
2019-04-21T04:19:44.590Z,12.50
2019-04-21T04:22:24.968Z,12.52
2019-04-21T04:24:57.550Z,12.59
2019-04-21T04:29:59.037Z,12.56
2019-04-21T04:32:28.578Z,12.57
2019-04-21T04:35:05.702Z,12.57
2019-04-21T04:37:32.824Z,12.60
2019-04-21T04:40:13.801Z,12.53
2019-04-21T04:42:55.936Z,12.55
2019-04-21T04:50:36.599Z,12.56
2019-04-21T04:52:56.825Z,12.55
2019-04-21T04:55:33.502Z,12.58
2019-04-21T05:03:01.389Z,12.61
2019-04-21T05:06:28.582Z,12.66
2019-04-21T05:11:35.822Z,12.68
2019-04-21T05:13:57.834Z,12.72
2019-04-21T05:16:36.341Z,12.75
2019-04-21T05:19:06.456Z,12.87
2019-04-21T05:21:29.750Z,12.91
2019-04-21T05:23:48.452Z,12.96
2019-04-21T05:26:10.902Z,12.96
2019-04-21T05:28:42.286Z,13.01
2019-04-21T05:31:52.401Z,13.10
2019-04-21T05:34:18.982Z,13.11
2019-04-21T05:37:14.240Z,13.22
2019-04-21T05:39:56.992Z,13.29
2019-04-21T05:42:31.798Z,13.29
2019-04-21T05:45:23.036Z,13.37
2019-04-21T05:48:04.752Z,13.44
2019-04-21T05:50:26.558Z,13.44
2019-04-21T05:52:53.477Z,13.53
2019-04-21T05:55:40.683Z,13.53
2019-04-21T05:58:19.375Z,13.66
2019-04-21T06:00:59.699Z,13.84
2019-04-21T06:03:16.476Z,13.84
2019-04-21T06:05:55.188Z,14.00
2019-04-21T06:08:23.320Z,14.11
2019-04-21T06:10:47.681Z,14.17
2019-04-21T06:15:57.963Z,14.39
2019-04-21T06:18:28.957Z,14.39
2019-04-21T06:20:54.317Z,14.48
2019-04-21T06:23:25.075Z,14.59
2019-04-21T06:26:09.955Z,14.77
2019-04-21T06:28:37.573Z,14.81
2019-04-21T06:33:36.424Z,14.89
2019-04-21T06:36:31.970Z,15.04
2019-04-21T06:39:04.632Z,15.17
2019-04-21T06:41:31.533Z,15.27
2019-04-21T06:49:02.668Z,15.47
2019-04-21T06:51:36.009Z,15.68
2019-04-21T06:54:09.547Z,15.83
2019-04-21T06:56:48.031Z,15.83
2019-04-21T06:59:09.583Z,16.06
2019-04-21T07:01:55.079Z,16.06
2019-04-21T07:06:52.129Z,16.36
2019-04-21T07:11:48.773Z,16.55
2019-04-21T07:14:28.017Z,16.55
2019-04-21T07:16:59.612Z,16.73
2019-04-21T07:21:58.827Z,17.09
2019-04-21T07:24:31.917Z,17.09
2019-04-21T07:27:02.378Z,17.18
2019-04-21T07:29:39.500Z,17.42
2019-04-21T07:32:09.354Z,17.42
2019-04-21T07:34:46.138Z,17.71
2019-04-21T07:37:12.572Z,17.71
2019-04-21T07:39:43.893Z,17.83
2019-04-21T07:42:16.360Z,17.83
2019-04-21T07:44:44.777Z,17.88
2019-04-21T07:47:20.176Z,17.97
2019-04-21T07:50:24.129Z,17.97
2019-04-21T07:53:01.026Z,18.20
2019-04-21T07:57:56.109Z,18.21
2019-04-21T08:00:45.477Z,18.41
2019-04-21T08:03:09.601Z,18.50
2019-04-21T08:05:45.768Z,18.61
2019-04-21T08:08:01.442Z,18.61
2019-04-21T08:10:40.848Z,18.62
2019-04-21T08:13:27.299Z,18.66
2019-04-21T08:15:49.438Z,18.78
2019-04-21T08:18:22.020Z,18.92
2019-04-21T08:20:50.527Z,18.82
2019-04-21T08:23:22.181Z,18.98
2019-04-21T08:26:03.266Z,18.99
2019-04-21T08:28:26.514Z,19.16
2019-04-21T08:30:55.302Z,19.16
2019-04-21T08:33:32.529Z,19.15
2019-04-21T08:36:13.187Z,19.22
2019-04-21T08:38:31.378Z,19.14
2019-04-21T08:43:42.621Z,19.99
2019-04-21T08:46:17.321Z,19.99
2019-04-21T08:48:42.258Z,19.97
2019-04-21T08:51:27.607Z,19.93
2019-04-21T08:56:52.923Z,19.82
2019-04-21T08:59:52.890Z,19.77
2019-04-21T09:02:29.761Z,19.71
2019-04-21T09:04:52.796Z,19.71
2019-04-21T09:07:33.096Z,19.85
2019-04-21T09:09:57.509Z,19.87
2019-04-21T09:12:30.269Z,19.87
2019-04-21T09:15:01.755Z,19.97
2019-04-21T09:17:28.636Z,19.97
2019-04-21T09:20:13.560Z,19.82
2019-04-21T09:22:35.800Z,19.95
2019-04-21T09:25:09.106Z,20.04
2019-04-21T09:27:39.420Z,19.97
2019-04-21T09:29:57.593Z,20.18
2019-04-21T09:32:27.625Z,20.18
2019-04-21T09:34:56.246Z,20.40
2019-04-21T09:37:40.028Z,20.29
2019-04-21T09:39:59.494Z,20.29
2019-04-21T09:42:36.001Z,20.38
2019-04-21T09:45:04.240Z,20.41
2019-04-21T09:47:42.235Z,20.41
2019-04-21T09:50:09.583Z,20.43
2019-04-21T09:52:46.973Z,20.66
2019-04-21T09:55:15.986Z,20.62
2019-04-21T09:57:48.457Z,20.51
2019-04-21T10:00:22.443Z,20.56
2019-04-21T10:02:56.735Z,20.56
2019-04-21T10:05:19.115Z,20.83
2019-04-21T10:07:50.665Z,20.89
2019-04-21T10:10:21.378Z,20.89
2019-04-21T10:12:51.988Z,20.77
2019-04-21T10:15:23.601Z,21.01
2019-04-21T10:18:00.566Z,21.14
2019-04-21T10:23:18.033Z,21.04
2019-04-21T10:25:48.464Z,21.15
2019-04-21T10:28:21.170Z,21.42
2019-04-21T10:30:51.331Z,21.17
2019-04-21T10:33:22.018Z,21.17
2019-04-21T10:35:52.990Z,21.36
2019-04-21T10:38:33.219Z,21.37
2019-04-21T10:40:54.136Z,21.37
2019-04-21T10:43:25.747Z,21.44
2019-04-21T10:45:57.060Z,21.41
2019-04-21T10:48:28.404Z,21.51
2019-04-21T10:51:30.990Z,21.51
2019-04-21T10:54:11.681Z,21.79
2019-04-21T10:56:44.013Z,21.82
2019-04-21T10:59:14.390Z,22.05
2019-04-21T11:01:45.258Z,22.05
2019-04-21T11:04:32.316Z,22.18
2019-04-21T11:07:05.205Z,22.16
2019-04-21T11:09:32.226Z,22.12
2019-04-21T11:12:06.283Z,22.12
2019-04-21T11:14:35.970Z,22.12
2019-04-21T11:17:06.127Z,22.12
2019-04-21T11:19:36.906Z,22.14
2019-04-21T11:22:07.239Z,22.26
2019-04-21T11:24:37.132Z,22.38
2019-04-21T11:27:08.716Z,22.32
2019-04-21T11:29:39.226Z,22.32
2019-04-21T11:32:09.408Z,22.55
2019-04-21T11:34:43.047Z,22.73
2019-04-21T11:37:14.844Z,22.87
2019-04-21T11:39:56.955Z,22.87
2019-04-21T11:42:30.036Z,23.25
2019-04-21T11:45:04.138Z,23.25
2019-04-21T11:47:40.576Z,23.10
2019-04-21T11:50:10.864Z,23.03
2019-04-21T11:52:43.175Z,22.95
2019-04-21T11:55:14.324Z,22.95
2019-04-21T11:57:46.876Z,23.27
2019-04-21T12:00:15.789Z,23.35
2019-04-21T12:02:45.994Z,23.26
2019-04-21T12:05:17.316Z,23.26
2019-04-21T12:07:49.686Z,23.35
2019-04-21T12:10:19.750Z,23.40
2019-04-21T12:12:50.883Z,23.40
2019-04-21T12:15:20.846Z,23.54
2019-04-21T12:17:56.481Z,23.71
2019-04-21T12:20:26.443Z,23.59
2019-04-21T12:22:56.975Z,23.59
2019-04-21T12:25:31.271Z,23.67
2019-04-21T12:28:01.735Z,23.67
2019-04-21T12:30:31.593Z,23.78
2019-04-21T12:33:27.829Z,23.87
2019-04-21T12:35:57.846Z,24.03
2019-04-21T12:38:36.489Z,24.16
2019-04-21T12:41:00.292Z,24.16
2019-04-21T12:43:30.707Z,24.05
2019-04-21T12:46:02.213Z,24.24
2019-04-21T12:48:33.670Z,24.17
2019-04-21T12:51:06.103Z,24.43
2019-04-21T12:53:39.109Z,24.31
2019-04-21T12:56:07.482Z,24.31
2019-04-21T12:58:37.730Z,24.49
2019-04-21T13:01:07.468Z,24.49
2019-04-21T13:03:46.271Z,24.42
2019-04-21T13:06:16.279Z,24.11
2019-04-21T13:08:56.842Z,24.31
2019-04-21T13:11:19.112Z,24.40
2019-04-21T13:13:50.166Z,24.40
2019-04-21T13:16:21.155Z,24.46
2019-04-21T13:18:51.311Z,24.48
2019-04-21T13:21:22.316Z,24.56
2019-04-21T13:23:54.793Z,24.63
2019-04-21T13:26:36.225Z,24.74
2019-04-21T13:28:58.433Z,24.74
2019-04-21T13:31:29.748Z,24.58
2019-04-21T13:33:59.942Z,24.66
2019-04-21T13:36:31.638Z,24.80
2019-04-21T13:39:52.146Z,24.66
2019-04-21T13:42:05.614Z,24.77
2019-04-21T13:44:23.483Z,24.91
2019-04-21T13:46:54.517Z,25.03
2019-04-21T13:49:25.260Z,25.10
2019-04-21T13:51:56.152Z,25.16
2019-04-21T13:54:27.438Z,25.16
2019-04-21T13:56:58.607Z,25.06
2019-04-21T13:59:28.774Z,24.86
2019-04-21T14:01:58.601Z,24.98
2019-04-21T14:04:29.535Z,24.98
2019-04-21T14:07:00.521Z,25.17
2019-04-21T14:09:40.276Z,25.32
2019-04-21T14:12:07.488Z,25.32
2019-04-21T14:14:38.531Z,25.51
2019-04-21T14:17:08.926Z,25.51
2019-04-21T14:19:45.627Z,25.66
2019-04-21T14:22:20.226Z,25.32
2019-04-21T14:24:50.197Z,25.54
2019-04-21T14:27:20.510Z,25.25
2019-04-21T14:29:51.388Z,25.25
2019-04-21T14:32:22.361Z,24.66
2019-04-21T14:34:53.978Z,24.66
2019-04-21T14:37:24.803Z,24.73
2019-04-21T14:40:06.885Z,24.58
2019-04-21T14:42:31.979Z,24.16
2019-04-21T14:45:03.195Z,24.82
2019-04-21T14:48:01.306Z,24.79
2019-04-21T14:50:52.467Z,24.46
2019-04-21T14:53:25.709Z,24.77
2019-04-21T14:55:55.534Z,24.43
2019-04-21T14:58:25.458Z,24.78
2019-04-21T15:00:58.041Z,24.63
2019-04-21T15:03:29.813Z,24.73
2019-04-21T15:06:01.126Z,24.73
2019-04-21T15:08:31.332Z,24.63
2019-04-21T15:11:01.192Z,24.84
2019-04-21T15:13:32.324Z,24.80
2019-04-21T15:16:02.736Z,24.95
2019-04-21T15:18:32.797Z,25.00
2019-04-21T15:21:03.717Z,25.07
2019-04-21T15:23:33.959Z,24.89
2019-04-21T15:26:05.977Z,24.92
2019-04-21T15:28:37.850Z,24.92
2019-04-21T15:31:08.333Z,25.07
2019-04-21T15:33:39.255Z,24.90
2019-04-21T15:36:09.100Z,25.22
2019-04-21T15:38:41.085Z,25.15
2019-04-21T15:41:12.525Z,24.82
2019-04-21T15:43:46.724Z,24.96
2019-04-21T15:46:16.555Z,24.83
2019-04-21T15:48:46.762Z,24.90
2019-04-21T15:51:17.799Z,24.98
2019-04-21T15:53:48.203Z,25.20
2019-04-21T15:56:33.017Z,25.20
2019-04-21T15:59:13.103Z,24.97
2019-04-21T16:01:52.508Z,25.53
2019-04-21T16:04:23.205Z,25.04
2019-04-21T16:06:53.431Z,25.53
2019-04-21T16:09:25.876Z,25.92
2019-04-21T16:11:55.698Z,25.92
2019-04-21T16:14:26.912Z,25.70
2019-04-21T16:16:57.454Z,25.84
2019-04-21T16:19:29.362Z,26.00
2019-04-21T16:22:00.999Z,25.81
2019-04-21T16:24:30.995Z,25.94
2019-04-21T16:27:05.350Z,25.36
2019-04-21T16:29:33.514Z,25.91
2019-04-21T16:32:03.302Z,25.82
2019-04-21T16:34:40.393Z,25.56
2019-04-21T16:37:05.575Z,25.65
2019-04-21T16:39:38.282Z,25.91
2019-04-21T16:42:08.479Z,25.20
2019-04-21T16:44:39.071Z,25.20
2019-04-21T16:47:09.726Z,24.96
2019-04-21T16:49:40.083Z,24.85
2019-04-21T16:52:30.045Z,24.69
2019-04-21T16:55:08.705Z,24.26
2019-04-21T16:58:04.591Z,23.72
2019-04-21T17:00:38.763Z,23.47
2019-04-21T17:03:06.282Z,23.47
2019-04-21T17:05:34.432Z,23.30
2019-04-21T17:08:04.330Z,22.95
2019-04-21T17:10:35.403Z,22.91
2019-04-21T17:13:06.092Z,22.72
2019-04-21T17:15:58.005Z,22.52
2019-04-21T17:18:29.972Z,22.52
2019-04-21T17:20:46.688Z,22.37
2019-04-21T17:23:11.484Z,22.32
2019-04-21T17:25:41.426Z,22.11
2019-04-21T17:28:12.158Z,22.09
2019-04-21T17:30:44.103Z,21.91
2019-04-21T17:33:16.248Z,21.76
2019-04-21T17:35:45.382Z,21.76
2019-04-21T17:38:16.340Z,21.53
2019-04-21T17:40:50.168Z,21.47
2019-04-21T17:43:21.631Z,21.22
2019-04-21T17:45:57.388Z,21.22
2019-04-21T17:48:27.169Z,21.17
2019-04-21T17:51:29.876Z,21.19
2019-04-21T17:54:35.671Z,21.07
2019-04-21T17:57:21.762Z,21.00
2019-04-21T18:00:07.098Z,20.79
2019-04-21T18:02:24.716Z,20.75
2019-04-21T18:04:58.584Z,20.65
2019-04-21T18:07:33.123Z,20.57
2019-04-21T18:12:30.397Z,20.48
2019-04-21T18:14:56.778Z,20.25
2019-04-21T18:17:16.455Z,20.25
2019-04-21T18:19:49.154Z,20.20
2019-04-21T18:22:47.931Z,20.04
2019-04-21T18:25:31.947Z,20.10
2019-04-21T18:27:57.023Z,19.78
2019-04-21T18:31:00.520Z,19.78
2019-04-21T18:33:39.894Z,19.76
2019-04-21T18:36:32.295Z,19.53
2019-04-21T18:39:19.780Z,19.53
2019-04-21T18:42:05.061Z,19.36
2019-04-21T18:45:06.474Z,19.36
2019-04-21T18:47:48.806Z,19.24
2019-04-21T18:50:29.438Z,19.08
2019-04-21T18:53:16.593Z,19.05
2019-04-21T18:55:45.080Z,19.05
2019-04-21T18:58:13.368Z,18.81
2019-04-21T19:00:44.187Z,18.74
2019-04-21T19:03:15.580Z,18.69
2019-04-21T19:05:50.462Z,18.69
2019-04-21T19:08:32.843Z,18.72
2019-04-21T19:11:10.522Z,18.61
2019-04-21T19:14:17.435Z,18.57
2019-04-21T19:16:43.170Z,18.30
2019-04-21T19:21:34.448Z,18.26
2019-04-21T19:24:18.342Z,18.26
2019-04-21T19:29:21.078Z,18.23
2019-04-21T19:34:07.706Z,18.11
2019-04-21T19:36:32.667Z,17.98
2019-04-21T19:39:11.329Z,17.89
2019-04-21T19:41:50.800Z,17.89
2019-04-21T19:44:29.316Z,17.90
2019-04-21T19:47:03.002Z,17.82
2019-04-21T19:49:41.878Z,17.82
2019-04-21T19:51:58.768Z,17.74
2019-04-21T19:54:29.984Z,17.66
2019-04-21T19:56:55.383Z,17.59
2019-04-21T19:59:36.167Z,17.30
2019-04-21T20:01:58.356Z,17.30
2019-04-21T20:04:38.503Z,17.18
2019-04-21T20:07:22.046Z,17.18
2019-04-21T20:09:55.814Z,17.20
2019-04-21T20:12:38.179Z,17.20
2019-04-21T20:15:04.847Z,17.11
2019-04-21T20:17:32.352Z,17.11
2019-04-21T20:19:44.639Z,17.04
2019-04-21T20:22:14.848Z,16.98
2019-04-21T20:24:52.169Z,16.87
2019-04-21T20:27:29.542Z,16.87
2019-04-21T20:30:09.935Z,16.90
2019-04-21T20:32:45.363Z,16.90
2019-04-21T20:35:22.474Z,16.90
2019-04-21T20:37:41.868Z,16.90
2019-04-21T20:40:05.311Z,16.86
2019-04-21T20:42:45.200Z,16.86
2019-04-21T20:47:41.065Z,16.89
2019-04-21T20:50:22.181Z,16.89
2019-04-21T20:52:58.995Z,16.83
2019-04-21T20:55:24.870Z,16.77
2019-04-21T20:57:53.852Z,16.81
2019-04-21T21:00:32.710Z,16.81
2019-04-21T21:03:07.063Z,16.79
2019-04-21T21:05:34.862Z,16.79
2019-04-21T21:08:11.527Z,16.72
2019-04-21T21:10:36.800Z,16.68
2019-04-21T21:13:22.198Z,16.68
2019-04-21T21:15:44.578Z,16.63
2019-04-21T21:18:26.752Z,16.62
2019-04-21T21:20:49.799Z,16.62
2019-04-21T21:23:11.816Z,16.52
2019-04-21T21:25:51.029Z,16.46
2019-04-21T21:28:17.096Z,16.46
2019-04-21T21:30:53.046Z,16.41
2019-04-21T21:33:29.199Z,16.35
2019-04-21T21:35:50.351Z,16.32
2019-04-21T21:38:31.636Z,16.28
2019-04-21T21:40:53.133Z,16.17
2019-04-21T21:43:19.181Z,16.17
2019-04-21T21:45:52.151Z,16.14
2019-04-21T21:48:31.861Z,16.14
2019-04-21T21:51:03.585Z,16.14
2019-04-21T21:53:23.786Z,16.10
2019-04-21T21:55:53.665Z,16.04
2019-04-21T21:58:28.539Z,16.08
2019-04-21T22:01:02.332Z,16.08
2019-04-21T22:03:35.332Z,16.08
2019-04-21T22:06:06.262Z,15.99
2019-04-21T22:08:32.670Z,15.98
2019-04-21T22:11:09.136Z,15.97
2019-04-21T22:13:47.512Z,15.97
2019-04-21T22:19:07.920Z,16.41
2019-04-21T22:21:41.292Z,16.39
2019-04-21T22:24:00.218Z,16.14
2019-04-21T22:26:27.176Z,16.08
2019-04-21T22:28:58.160Z,16.02
2019-04-21T22:31:33.017Z,16.00
2019-04-21T22:34:05.180Z,15.89
2019-04-21T22:36:44.800Z,15.84
2019-04-21T22:39:19.433Z,15.75
2019-04-21T22:41:41.234Z,15.75
2019-04-21T22:44:06.843Z,15.63
2019-04-21T22:46:38.191Z,15.66
2019-04-21T22:49:10.449Z,15.59
2019-04-21T22:51:44.833Z,15.43
2019-04-21T22:54:12.823Z,15.41
2019-04-21T22:56:54.012Z,15.41
2019-04-21T22:59:18.626Z,15.42
2019-04-21T23:01:49.914Z,15.30
2019-04-21T23:04:17.796Z,15.35
2019-04-21T23:06:48.766Z,15.35
2019-04-21T23:09:19.236Z,15.36
2019-04-21T23:11:51.472Z,15.38
2019-04-21T23:14:21.531Z,15.43
2019-04-21T23:16:54.226Z,15.43
2019-04-21T23:19:36.153Z,15.34
2019-04-21T23:22:16.158Z,15.34
2019-04-21T23:24:54.463Z,15.34
2019-04-21T23:27:14.157Z,15.37
2019-04-21T23:30:00.202Z,15.37
2019-04-21T23:32:19.935Z,15.28
2019-04-21T23:34:37.179Z,15.28
2019-04-21T23:37:14.191Z,15.20
2019-04-21T23:39:39.521Z,15.18
2019-04-21T23:42:11.135Z,15.18
2019-04-21T23:44:47.038Z,15.18
2019-04-21T23:47:27.571Z,15.21
2019-04-21T23:49:53.168Z,15.17
2019-04-21T23:52:18.011Z,15.17
2019-04-21T23:54:49.294Z,15.16
2019-04-21T23:57:28.538Z,15.13
2019-04-21T23:59:54.149Z,15.08
